Time;durP1;ratioP1;P1;durP2;ratioP2;P2;SDS_P1;SDS_P2;PMS_P1;PMS_P2;Temp;Humidity;BMP_temperature;BMP_pressure;BME280_temperature;BME280_humidity;BME280_pressure;Samples;Min_cycle;Max_cycle;Signal;HPM_P1;HPM_P2
2022/05/22 00:01:00;;;;;;;1.30;0.60;;;;;;;16.03;51.28;98868.00;5072013;28;20090;-67
2022/05/22 00:03:45;;;;;;;0.70;0.60;;;;;;;15.75;51.67;98862.50;5072476;28;20037;-65
2022/05/22 00:06:30;;;;;;;3.67;0.70;;;;;;;16.08;52.46;98857.84;5072460;28;20476;-66
2022/05/22 00:09:16;;;;;;;4.70;0.70;;;;;;;15.81;51.81;98858.50;5072368;28;20053;-65
2022/05/22 00:12:01;;;;;;;1.48;0.80;;;;;;;15.34;53.00;98852.81;5071455;28;20040;-65
2022/05/22 00:14:46;;;;;;;1.40;0.57;;;;;;;15.50;53.10;98856.78;5071670;28;20468;-65
2022/05/22 00:17:30;;;;;;;0.70;0.55;;;;;;;15.83;53.01;98856.56;5071438;28;20070;-65
2022/05/22 00:20:15;;;;;;;1.55;0.55;;;;;;;15.84;51.92;98855.56;5072459;28;20040;-66
2022/05/22 00:23:00;;;;;;;1.95;0.60;;;;;;;15.55;54.25;98854.56;5073072;28;20040;-66
2022/05/22 00:25:44;;;;;;;1.35;0.60;;;;;;;15.39;54.29;98847.97;5051595;28;20048;-65
2022/05/22 00:28:29;;;;;;;1.20;0.50;;;;;;;15.75;54.07;98846.66;5052658;28;20049;-66
2022/05/22 00:31:14;;;;;;;2.72;0.57;;;;;;;16.13;52.19;98837.13;5052462;28;20052;-65
2022/05/22 00:33:59;;;;;;;2.17;0.77;;;;;;;15.67;51.78;98844.69;5052759;28;20044;-65
2022/05/22 00:36:44;;;;;;;1.92;0.50;;;;;;;15.66;53.84;98840.41;5051595;28;20052;-66
2022/05/22 00:39:29;;;;;;;1.58;0.60;;;;;;;15.36;53.04;98839.50;5037999;28;20333;-66
2022/05/22 00:42:19;;;;;;;2.95;0.70;;;;;;;15.18;53.98;98839.31;5051251;28;20118;-65
2022/05/22 00:45:06;;;;;;;1.30;0.70;;;;;;;14.95;54.32;98837.66;5079256;28;20037;-66
2022/05/22 00:47:51;;;;;;;2.15;0.70;;;;;;;14.76;54.91;98838.38;5051028;28;20037;-65
2022/05/22 00:50:35;;;;;;;1.75;0.80;;;;;;;14.78;56.06;98844.38;5065932;28;20067;-66
2022/05/22 00:53:22;;;;;;;0.70;0.50;;;;;;;15.13;56.43;98843.16;5052725;28;20067;-65
2022/05/22 00:56:12;;;;;;;3.20;0.65;;;;;;;15.07;54.56;98846.34;5065068;28;20099;-64
2022/05/22 00:58:57;;;;;;;2.05;0.57;;;;;;;15.16;55.35;98839.44;5051050;28;20052;-65
2022/05/22 01:01:42;;;;;;;2.38;0.93;;;;;;;14.90;54.77;98845.16;5052069;28;20396;-64
2022/05/22 01:04:30;;;;;;;0.73;0.50;;;;;;;15.29;54.10;98851.56;5052168;28;20052;-66
2022/05/22 01:07:16;;;;;;;1.08;0.73;;;;;;;14.96;55.38;98839.38;5051813;28;20499;-65
2022/05/22 01:10:01;;;;;;;1.23;0.57;;;;;;;15.73;52.82;98852.06;5051992;28;20069;-66
2022/05/22 01:12:48;;;;;;;1.88;0.60;;;;;;;15.69;56.14;98855.13;5065274;28;20499;-65
2022/05/22 01:15:33;;;;;;;1.13;0.80;;;;;;;15.77;52.69;98855.28;5052762;28;20045;-68
2022/05/22 01:18:18;;;;;;;2.33;0.60;;;;;;;15.99;54.00;98846.28;5037465;28;20531;-65
2022/05/22 01:21:11;;;;;;;1.33;0.60;;;;;;;15.85;52.39;98844.03;5064882;28;20495;-68
2022/05/22 01:23:56;;;;;;;1.88;0.60;;;;;;;16.51;50.09;98846.97;5055967;28;20101;-65
2022/05/22 01:26:45;;;;;;;0.77;0.57;;;;;;;17.11;50.44;98845.03;5070215;28;20040;-67
2022/05/22 01:29:49;;;;;;;2.95;0.70;;;;;;;16.96;50.10;98852.56;5058658;28;20121;-65
2022/05/22 01:32:34;;;;;;;2.08;0.70;;;;;;;17.13;50.74;98853.66;5070389;28;20041;-66
2022/05/22 01:35:25;;;;;;;1.35;0.50;;;;;;;17.56;50.11;98846.03;5070613;28;20071;-66
2022/05/22 01:38:11;;;;;;;1.85;0.90;;;;;;;16.92;50.61;98851.19;5070293;28;20535;-68
2022/05/22 01:40:59;;;;;;;1.05;0.50;;;;;;;16.16;51.09;98853.69;5070488;28;20062;-66
2022/05/22 01:43:58;;;;;;;1.58;0.50;;;;;;;15.44;53.54;98852.84;5070385;28;20095;-70
2022/05/22 01:46:43;;;;;;;0.77;0.50;;;;;;;15.42;54.72;98851.31;5070131;28;20518;-67
2022/05/22 01:49:29;;;;;;;3.53;0.57;;;;;;;15.32;54.42;98848.66;5056594;28;20115;-66
2022/05/22 01:52:14;;;;;;;1.20;0.63;;;;;;;15.82;54.75;98850.44;5056811;28;20041;-66
2022/05/22 01:55:00;;;;;;;2.30;0.85;;;;;;;15.43;54.93;98843.28;5070371;28;20044;-66
2022/05/22 01:57:46;;;;;;;1.73;0.85;;;;;;;15.16;56.83;98844.72;5055658;28;20044;-67
2022/05/22 02:00:35;;;;;;;1.10;0.75;;;;;;;14.78;57.73;98839.94;5065541;28;20037;-70
2022/05/22 02:03:20;;;;;;;1.08;0.68;;;;;;;14.53;60.13;98849.06;5070220;28;20418;-64
2022/05/22 02:06:05;;;;;;;1.20;0.60;;;;;;;14.98;58.35;98847.16;5071104;28;20044;-66
2022/05/22 02:08:51;;;;;;;3.70;0.80;;;;;;;14.74;58.79;98846.44;5071366;28;20036;-67
2022/05/22 02:11:36;;;;;;;3.75;0.80;;;;;;;14.71;59.99;98846.69;5067937;28;20102;-67
2022/05/22 02:14:21;;;;;;;2.45;0.70;;;;;;;14.19;60.73;98847.47;5063517;28;20040;-65
2022/05/22 02:17:16;;;;;;;4.22;1.02;;;;;;;14.50;60.88;98841.44;5050721;28;20037;-65
2022/05/22 02:20:08;;;;;;;2.97;0.80;;;;;;;14.36;60.63;98848.69;5063390;28;20037;-66
2022/05/22 02:22:59;;;;;;;1.00;0.73;;;;;;;14.66;58.83;98840.97;5065672;28;20044;-65
2022/05/22 02:25:51;;;;;;;2.05;0.90;;;;;;;14.72;59.64;98839.63;5050136;28;20045;-67
2022/05/22 02:28:38;;;;;;;2.42;0.70;;;;;;;15.34;57.40;98846.72;5035738;28;20033;-64
2022/05/22 02:31:23;;;;;;;0.98;0.80;;;;;;;15.95;56.66;98846.69;5036124;28;20047;-65
2022/05/22 02:34:12;;;;;;;2.10;0.50;;;;;;;15.70;55.82;98846.25;5063862;28;20049;-64
2022/05/22 02:36:57;;;;;;;1.98;0.80;;;;;;;15.26;56.92;98844.72;5068344;28;20041;-66
2022/05/22 02:39:45;;;;;;;3.58;0.75;;;;;;;14.89;57.81;98830.28;5069920;28;20036;-65
2022/05/22 02:42:50;;;;;;;1.83;0.82;;;;;;;14.90;58.10;98843.34;5069702;28;20041;-67
2022/05/22 02:45:40;;;;;;;2.10;0.70;;;;;;;14.80;58.39;98839.84;5070093;28;20059;-66
2022/05/22 02:48:27;;;;;;;1.23;0.70;;;;;;;14.90;59.55;98839.91;5070266;28;20040;-65
2022/05/22 02:51:23;;;;;;;4.15;0.90;;;;;;;14.77;57.54;98846.16;5069233;28;20434;-66
2022/05/22 02:54:09;;;;;;;1.55;0.85;;;;;;;14.51;57.70;98851.84;5070396;28;20123;-66
2022/05/22 02:57:10;;;;;;;3.13;0.80;;;;;;;14.43;58.31;98861.38;5057725;28;20395;-67
2022/05/22 02:59:57;;;;;;;2.17;0.70;;;;;;;14.51;57.65;98854.47;5055759;28;20033;-64
2022/05/22 03:03:05;;;;;;;1.83;0.80;;;;;;;14.46;58.27;98855.84;5070500;28;20092;-67
2022/05/22 03:08:53;;;;;;;1.60;0.57;;;;;;;14.16;58.87;98856.47;5070703;28;20045;-64
2022/05/22 03:11:39;;;;;;;0.85;0.60;;;;;;;14.39;58.86;98850.25;5053082;28;20036;-64
2022/05/22 03:14:25;;;;;;;0.85;0.65;;;;;;;14.38;58.20;98852.03;5040923;28;20091;-65
2022/05/22 03:17:13;;;;;;;1.08;0.73;;;;;;;14.45;58.52;98846.25;5055344;28;20159;-64
2022/05/22 03:20:10;;;;;;;0.77;0.57;;;;;;;15.08;58.75;98832.19;5041270;28;20041;-64
2022/05/22 03:22:54;;;;;;;2.28;0.98;;;;;;;15.05;57.12;98831.63;5053251;28;20423;-64
2022/05/22 03:25:40;;;;;;;1.05;0.50;;;;;;;15.11;57.97;98836.38;5052813;28;20045;-67
2022/05/22 03:28:24;;;;;;;3.33;0.82;;;;;;;14.70;58.68;98836.28;5053969;28;20116;-65
2022/05/22 03:31:09;;;;;;;1.85;0.80;;;;;;;14.64;59.40;98830.56;5024942;28;20060;-64
2022/05/22 03:33:54;;;;;;;2.78;0.95;;;;;;;14.79;59.15;98832.84;5053424;28;20045;-66
2022/05/22 03:36:40;;;;;;;2.45;0.93;;;;;;;15.20;57.81;98826.81;5053568;28;20159;-65
2022/05/22 03:39:26;;;;;;;3.20;0.80;;;;;;;15.50;57.17;98825.91;5039797;28;20037;-66
2022/05/22 03:42:11;;;;;;;4.18;1.30;;;;;;;15.37;56.60;98831.44;5052563;28;20102;-67
2022/05/22 03:44:57;;;;;;;2.45;0.80;;;;;;;14.82;60.07;98832.63;5052228;28;20119;-67
2022/05/22 03:47:42;;;;;;;2.10;1.20;;;;;;;14.92;59.61;98832.66;5052392;28;20040;-67
2022/05/22 03:50:31;;;;;;;3.90;1.20;;;;;;;14.44;61.09;98840.16;5053975;28;20091;-67
2022/05/22 03:53:16;;;;;;;3.05;1.40;;;;;;;14.50;61.84;98833.53;5080806;28;20068;-65
2022/05/22 03:56:11;;;;;;;2.75;0.70;;;;;;;14.44;61.47;98837.53;5052762;28;20094;-65
2022/05/22 03:58:56;;;;;;;4.47;1.05;;;;;;;14.55;60.16;98839.25;5066569;28;20037;-66
2022/05/22 04:01:41;;;;;;;2.17;0.85;;;;;;;14.61;59.71;98849.28;5052894;28;20048;-67
2022/05/22 04:04:27;;;;;;;2.65;0.98;;;;;;;14.58;60.51;98857.44;5052723;28;20064;-66
2022/05/22 04:07:15;;;;;;;1.95;1.17;;;;;;;14.52;59.93;98852.69;5052795;28;20044;-65
2022/05/22 04:10:00;;;;;;;1.73;0.88;;;;;;;14.24;61.44;98850.56;5059939;28;20090;-65
2022/05/22 04:12:53;;;;;;;1.67;0.63;;;;;;;14.30;61.24;98854.47;5059217;28;20040;-65
2022/05/22 04:15:38;;;;;;;2.28;0.80;;;;;;;14.59;59.95;98858.28;5071547;28;20372;-67
2022/05/22 04:18:25;;;;;;;2.25;1.00;;;;;;;14.61;59.92;98856.34;5072134;28;20044;-65
2022/05/22 04:21:11;;;;;;;4.15;1.10;;;;;;;14.15;61.47;98856.59;5058428;28;20044;-65
2022/05/22 04:27:10;;;;;;;1.35;0.80;;;;;;;14.19;61.01;98865.06;5059804;28;20495;-65
2022/05/22 04:29:56;;;;;;;6.25;1.05;;;;;;;14.03;62.39;98864.53;5072229;28;20144;-69
2022/05/22 04:32:46;;;;;;;4.40;1.00;;;;;;;14.15;61.43;98875.03;5043687;28;20336;-66
2022/05/22 04:35:30;;;;;;;0.80;0.70;;;;;;;14.61;60.38;98869.50;5072004;28;20044;-65
2022/05/22 04:38:15;;;;;;;2.05;0.80;;;;;;;14.63;60.80;98865.81;5058178;28;20044;-65
2022/05/22 04:41:02;;;;;;;3.47;1.00;;;;;;;14.84;59.77;98858.84;5072000;28;20037;-65
2022/05/22 04:43:47;;;;;;;3.22;0.85;;;;;;;14.98;60.79;98866.41;5072043;28;20387;-65
2022/05/22 04:46:32;;;;;;;1.20;0.80;;;;;;;15.22;58.69;98869.72;5071749;28;20136;-66
2022/05/22 04:49:17;;;;;;;1.33;0.73;;;;;;;15.19;59.04;98870.84;5057773;28;20456;-64
2022/05/22 04:52:01;;;;;;;1.92;0.82;;;;;;;15.17;58.55;98869.28;5071703;28;20051;-66
2022/05/22 04:54:47;;;;;;;3.72;1.27;;;;;;;15.05;58.46;98872.00;5043559;28;20454;-65
2022/05/22 04:57:31;;;;;;;1.52;1.00;;;;;;;14.38;60.34;98873.13;5056893;28;20111;-65
2022/05/22 05:00:18;;;;;;;4.70;1.17;;;;;;;13.71;62.10;98869.78;5056598;28;20396;-65
2022/05/22 05:03:14;;;;;;;1.65;1.05;;;;;;;13.67;63.80;98875.28;5049951;28;20045;-65
2022/05/22 05:05:59;;;;;;;2.78;0.80;;;;;;;14.31;62.78;98866.69;5043784;28;20044;-65
2022/05/22 05:08:46;;;;;;;2.20;0.98;;;;;;;14.63;60.29;98883.41;5057585;28;20051;-64
2022/05/22 05:12:00;;;;;;;4.05;0.95;;;;;;;14.80;59.95;98870.66;5052296;28;20091;-65
2022/05/22 05:14:46;;;;;;;2.65;1.00;;;;;;;14.59;61.64;98872.28;5052376;28;20562;-66
2022/05/22 05:17:32;;;;;;;2.08;1.00;;;;;;;14.87;58.53;98872.63;5039793;28;20492;-65
2022/05/22 05:20:23;;;;;;;3.40;1.17;;;;;;;14.95;58.70;98865.88;5065374;28;20048;-64
2022/05/22 05:23:10;;;;;;;1.52;1.08;;;;;;;15.34;58.83;98865.19;5079890;28;20072;-65
2022/05/22 05:26:03;;;;;;;3.28;1.10;;;;;;;15.73;57.06;98864.47;5037947;28;20072;-66
2022/05/22 05:28:49;;;;;;;2.05;1.05;;;;;;;16.75;54.43;98857.09;5036038;28;20039;-65
2022/05/22 05:31:43;;;;;;;2.72;1.25;;;;;;;16.67;54.16;98869.34;5062462;28;20043;-65
2022/05/22 05:34:30;;;;;;;2.47;1.73;;;;;;;16.38;53.60;98863.13;5041238;28;20037;-66
2022/05/22 05:37:39;;;;;;;1.90;1.05;;;;;;;16.25;54.51;98868.72;5061389;28;20525;-65
2022/05/22 05:40:38;;;;;;;2.13;1.02;;;;;;;16.61;54.63;98853.06;5057776;28;20776;-66
2022/05/22 05:43:24;;;;;;;1.35;0.90;;;;;;;16.73;54.26;98859.03;5056240;28;20055;-67
2022/05/22 05:46:11;;;;;;;2.47;1.15;;;;;;;16.51;55.29;98857.56;5065432;28;20051;-66
2022/05/22 05:48:56;;;;;;;4.25;1.13;;;;;;;16.15;57.32;98855.50;5070477;28;20509;-65
2022/05/22 05:51:41;;;;;;;6.03;1.52;;;;;;;16.76;56.20;98857.94;5051754;28;20431;-67
2022/05/22 05:54:26;;;;;;;2.20;1.20;;;;;;;16.84;56.16;98849.28;5070520;28;20111;-66
2022/05/22 05:57:27;;;;;;;4.40;1.00;;;;;;;16.86;55.57;98849.94;5067489;28;20392;-66
2022/05/22 06:00:21;;;;;;;2.15;1.10;;;;;;;16.28;57.63;98846.44;5066249;28;20044;-66
2022/05/22 06:03:09;;;;;;;1.35;0.82;;;;;;;16.23;58.75;98847.72;5065080;28;20068;-65
2022/05/22 06:05:57;;;;;;;2.45;1.10;;;;;;;16.10;59.25;98845.34;5048167;28;20072;-66
2022/05/22 06:08:52;;;;;;;9.77;2.63;;;;;;;16.53;60.67;98844.19;5050566;28;20089;-66
2022/05/22 06:11:51;;;;;;;46.78;15.20;;;;;;;17.17;64.38;98836.50;5080575;28;20033;-64
2022/05/22 06:14:41;;;;;;;24.02;8.27;;;;;;;17.89;61.00;98844.75;5055601;28;20044;-66
2022/05/22 06:17:39;;;;;;;2.75;1.38;;;;;;;17.58;55.30;98843.25;5043522;28;20037;-64
2022/05/22 06:20:27;;;;;;;6.68;2.25;;;;;;;18.05;61.94;98855.47;5064670;28;20045;-64
2022/05/22 06:23:13;;;;;;;10.50;2.47;;;;;;;18.37;60.61;98857.75;5059666;28;20037;-68
2022/05/22 06:26:18;;;;;;;3.70;1.38;;;;;;;18.27;55.92;98847.22;5059347;28;20045;-66
2022/05/22 06:29:11;;;;;;;4.70;1.55;;;;;;;18.29;57.43;98843.47;5059885;28;20037;-67
2022/05/22 06:32:15;;;;;;;2.85;1.02;;;;;;;18.10;57.12;98842.59;5061738;28;20032;-67
2022/05/22 06:35:22;;;;;;;2.70;1.20;;;;;;;18.42;56.32;98843.06;5067501;28;20060;-65
2022/05/22 06:42:14;;;;;;;3.10;1.23;;;;;;;18.33;53.57;98841.31;5035295;28;20055;-64
2022/05/22 06:45:21;;;;;;;0.98;0.77;;;;;;;18.05;54.51;98836.09;5067409;28;20036;-65
2022/05/22 06:48:25;;;;;;;2.35;0.90;;;;;;;18.36;57.30;98832.22;5057237;28;20033;-63
2022/05/22 06:51:28;;;;;;;8.25;1.33;;;;;;;18.87;53.64;98821.78;5055135;28;20056;-66
2022/05/22 06:54:16;;;;;;;2.67;1.30;;;;;;;19.06;51.53;98827.84;5053631;28;20048;-68
2022/05/22 06:57:22;;;;;;;2.45;1.02;;;;;;;18.86;51.44;98825.44;5039498;28;20056;-64
2022/05/22 07:00:30;;;;;;;4.28;1.30;;;;;;;19.15;52.42;98820.75;5055413;28;20124;-62
2022/05/22 07:03:38;;;;;;;1.80;1.20;;;;;;;19.35;51.55;98817.84;5045159;28;20545;-67
2022/05/22 07:06:51;;;;;;;2.97;1.30;;;;;;;19.07;52.49;98814.41;5051199;28;20045;-61
2022/05/22 07:09:44;;;;;;;3.35;1.02;;;;;;;19.76;46.15;98815.31;5059373;28;20397;-67
2022/05/22 07:12:53;;;;;;;4.32;1.38;;;;;;;19.64;49.02;98814.78;5074225;28;20502;-64
2022/05/22 07:16:05;;;;;;;2.22;1.00;;;;;;;19.67;49.68;98816.25;5074786;28;20072;-66
2022/05/22 07:19:06;;;;;;;4.57;1.00;;;;;;;19.67;48.53;98809.13;5064476;28;20045;-64
2022/05/22 07:22:10;;;;;;;2.20;1.17;;;;;;;20.53;45.46;98807.19;5074188;28;20036;-66
2022/05/22 07:25:14;;;;;;;5.05;1.13;;;;;;;20.29;46.13;98803.53;5073697;28;20040;-65
2022/05/22 07:28:22;;;;;;;2.53;1.20;;;;;;;19.56;45.98;98814.75;5062750;28;20047;-65
2022/05/22 07:31:34;;;;;;;4.40;0.95;;;;;;;19.17;47.05;98813.47;5074550;28;20041;-65
2022/05/22 07:34:38;;;;;;;2.50;1.10;;;;;;;19.65;48.24;98810.31;5074074;28;20048;-54
2022/05/22 07:37:50;;;;;;;3.30;1.02;;;;;;;19.38;48.07;98809.56;5059437;28;20056;-64
2022/05/22 07:41:06;;;;;;;1.88;0.80;;;;;;;18.40;48.30;98810.56;5044590;28;20086;-66
2022/05/22 07:44:09;;;;;;;1.98;0.98;;;;;;;18.45;49.57;98802.13;5081409;28;20480;-66
2022/05/22 07:47:07;;;;;;;3.70;0.80;;;;;;;18.84;48.47;98809.66;5066113;28;20102;-65
2022/05/22 07:50:17;;;;;;;5.47;1.38;;;;;;;18.62;49.68;98802.25;5059366;28;20048;-64
2022/05/22 07:53:09;;;;;;;6.00;1.05;;;;;;;19.12;48.06;98800.69;5066062;28;20045;-68
2022/05/22 07:56:23;;;;;;;3.17;0.90;;;;;;;19.73;46.72;98785.56;5065016;28;20041;-67
2022/05/22 07:59:38;;;;;;;3.30;1.17;;;;;;;19.59;47.00;98785.22;5069066;28;20080;-67
2022/05/22 08:02:42;;;;;;;4.10;1.15;;;;;;;19.66;47.32;98788.03;5058464;28;20162;-67
2022/05/22 08:05:28;;;;;;;2.05;1.00;;;;;;;19.66;45.48;98780.91;5061449;28;20114;-67
2022/05/22 08:08:18;;;;;;;2.50;0.85;;;;;;;19.26;47.02;98777.19;5059593;28;20041;-67
2022/05/22 08:11:12;;;;;;;3.15;1.05;;;;;;;19.37;46.71;98784.00;5067934;28;20041;-67
2022/05/22 08:14:25;;;;;;;3.50;1.17;;;;;;;19.75;46.10;98783.59;5070547;28;20503;-68
2022/05/22 08:17:12;;;;;;;1.75;0.73;;;;;;;19.94;47.08;98790.41;5055169;28;20052;-67
2022/05/22 08:19:58;;;;;;;2.17;0.98;;;;;;;20.42;46.41;98781.75;5043276;28;20059;-68
2022/05/22 08:23:07;;;;;;;3.22;1.13;;;;;;;20.54;43.36;98776.91;5055061;28;20131;-66
2022/05/22 08:26:17;;;;;;;3.10;0.90;;;;;;;20.87;44.38;98765.34;5067055;28;20437;-66
2022/05/22 08:29:03;;;;;;;4.28;0.98;;;;;;;21.69;39.90;98771.22;5056962;28;20051;-67
2022/05/22 08:31:51;;;;;;;3.38;0.70;;;;;;;22.24;39.95;98771.16;5056666;28;20056;-67
2022/05/22 08:34:36;;;;;;;2.53;0.80;;;;;;;22.66;38.04;98756.56;5051941;28;20049;-67
2022/05/22 08:37:22;;;;;;;1.80;0.75;;;;;;;24.20;36.86;98753.09;5042266;28;20396;-67
2022/05/22 08:40:09;;;;;;;3.00;0.93;;;;;;;22.84;37.35;98751.69;5071461;28;20040;-69
2022/05/22 08:43:11;;;;;;;2.22;0.80;;;;;;;22.52;38.87;98754.50;5072428;28;20480;-67
2022/05/22 08:46:21;;;;;;;4.65;1.38;;;;;;;23.06;38.70;98748.25;5079803;28;20599;-65
2022/05/22 08:49:31;;;;;;;6.82;1.17;;;;;;;23.61;38.51;98761.19;5073962;28;20122;-68
2022/05/22 08:52:38;;;;;;;4.75;1.20;;;;;;;23.14;37.71;98751.63;5073910;28;20363;-68
2022/05/22 08:58:56;;;;;;;2.20;0.88;;;;;;;22.63;38.36;98750.59;5058073;28;20421;-68
2022/05/22 08:58:57;;;;;;;4.20;1.15;;;;;;;23.86;37.10;98753.59;5071410;28;20036;-66
2022/05/22 09:02:24;;;;;;;4.05;1.00;;;;;;;24.06;35.37;98752.94;5060847;28;20051;-68
2022/05/22 09:05:17;;;;;;;4.93;1.02;;;;;;;22.66;36.28;98745.88;5072552;28;20085;-67
2022/05/22 09:08:06;;;;;;;3.13;1.00;;;;;;;22.86;36.81;98736.31;5071034;28;20051;-56
2022/05/22 09:11:04;;;;;;;2.92;0.90;;;;;;;22.33;38.02;98733.69;5070653;28;20502;-67
2022/05/22 09:13:55;;;;;;;1.95;1.00;;;;;;;21.72;39.25;98732.75;5071933;28;20513;-70
2022/05/22 09:17:03;;;;;;;1.80;0.90;;;;;;;23.27;36.84;98731.44;5073379;28;20388;-69
2022/05/22 09:20:17;;;;;;;2.13;1.10;;;;;;;23.57;34.66;98735.84;5061226;28;20547;-67
2022/05/22 09:24:01;;;;;;;2.05;0.88;;;;;;;23.70;34.10;98722.63;5073583;28;20040;-68
2022/05/22 09:27:04;;;;;;;2.45;1.10;;;;;;;24.79;33.97;98718.81;5029514;28;20045;-68
2022/05/22 09:30:21;;;;;;;4.80;0.80;;;;;;;24.23;35.26;98718.75;5013097;28;20500;-70
2022/05/22 09:33:24;;;;;;;3.05;0.90;;;;;;;23.84;34.70;98728.09;5054694;28;20084;-67
2022/05/22 09:36:31;;;;;;;2.05;0.80;;;;;;;24.01;33.96;98725.94;5072000;28;20044;-65
2022/05/22 09:39:37;;;;;;;2.47;0.77;;;;;;;24.06;33.59;98730.72;5071378;28;20147;-68
2022/05/22 09:42:43;;;;;;;4.65;0.80;;;;;;;24.24;33.19;98716.88;5071717;28;20049;-69
2022/05/22 09:45:28;;;;;;;2.00;0.80;;;;;;;24.01;35.16;98733.16;5065057;28;20057;-65
2022/05/22 09:48:15;;;;;;;2.80;1.00;;;;;;;24.11;33.79;98729.13;5061659;28;20503;-67
2022/05/22 09:51:16;;;;;;;3.45;0.70;;;;;;;23.24;35.37;98708.59;5063679;28;20032;-65
2022/05/22 09:54:23;;;;;;;3.28;1.00;;;;;;;23.73;35.14;98718.75;5048144;28;20488;-68
2022/05/22 09:57:30;;;;;;;4.72;0.90;;;;;;;23.89;34.82;98720.31;5045625;28;20064;-68
2022/05/22 10:00:21;;;;;;;5.75;1.10;;;;;;;22.60;37.29;98720.78;5059986;28;20128;-68
2022/05/22 10:03:13;;;;;;;3.55;1.05;;;;;;;22.98;36.52;98704.59;5085373;28;20478;-70
2022/05/22 10:06:11;;;;;;;4.57;1.20;;;;;;;23.18;35.48;98711.19;5048569;28;20471;-57
2022/05/22 10:09:10;;;;;;;2.70;0.88;;;;;;;23.71;35.50;98705.56;5066936;28;20041;-64
2022/05/22 10:12:26;;;;;;;2.90;0.70;;;;;;;23.53;34.22;98700.69;5066487;28;20100;-66
2022/05/22 10:15:25;;;;;;;2.17;0.93;;;;;;;22.54;36.81;98710.81;5059690;28;20087;-68
2022/05/22 10:18:40;;;;;;;2.80;1.10;;;;;;;22.94;35.94;98700.66;5073429;28;20072;-65
2022/05/22 10:21:26;;;;;;;1.65;1.05;;;;;;;24.09;34.64;98701.72;5065454;28;20064;-68
2022/05/22 10:24:30;;;;;;;2.97;1.15;;;;;;;23.53;34.65;98679.31;5065404;28;20123;-68
2022/05/22 10:27:46;;;;;;;3.45;0.73;;;;;;;22.81;36.48;98684.47;5057969;28;20387;-65
2022/05/22 10:30:44;;;;;;;3.97;0.90;;;;;;;23.32;36.18;98688.13;5064143;28;20510;-66
2022/05/22 10:33:38;;;;;;;3.08;0.93;;;;;;;23.67;35.14;98682.91;5062844;28;20781;-68
2022/05/22 10:36:28;;;;;;;3.75;0.90;;;;;;;24.32;34.75;98675.75;5061310;28;20041;-66
2022/05/22 10:39:14;;;;;;;3.15;1.08;;;;;;;25.24;32.71;98687.25;5039379;28;20033;-70
2022/05/22 10:45:32;;;;;;;3.10;1.20;;;;;;;23.94;34.26;98677.75;5058634;28;20040;-66
2022/05/22 10:48:24;;;;;;;2.63;1.00;;;;;;;23.01;35.86;98666.84;5064920;28;20036;-68
2022/05/22 10:51:12;;;;;;;2.10;0.75;;;;;;;23.78;35.54;98659.34;5068461;28;20112;-67
2022/05/22 10:54:01;;;;;;;1.20;0.80;;;;;;;23.36;37.15;98652.81;5063587;28;20045;-72
2022/05/22 10:56:46;;;;;;;1.50;1.00;;;;;;;24.90;34.02;98645.13;5061425;28;20041;-68
2022/05/22 10:59:31;;;;;;;2.00;0.80;;;;;;;24.73;33.98;98644.63;5087365;28;20056;-62
2022/05/22 11:02:18;;;;;;;1.95;0.90;;;;;;;25.25;31.97;98638.78;5068246;28;20037;-69
2022/05/22 11:05:34;;;;;;;1.63;0.52;;;;;;;24.91;31.30;98636.06;5068268;28;20040;-72
2022/05/22 11:08:28;;;;;;;2.80;0.60;;;;;;;24.38;32.73;98632.16;5055232;28;20499;-67
2022/05/22 11:11:19;;;;;;;3.00;0.82;;;;;;;25.27;31.10;98638.59;5070567;28;20041;-66
2022/05/22 11:14:14;;;;;;;3.00;1.00;;;;;;;23.78;34.27;98638.75;5057314;28;20594;-67
2022/05/22 11:17:16;;;;;;;2.38;0.90;;;;;;;22.84;35.56;98644.91;5059606;28;20139;-64
2022/05/22 11:20:14;;;;;;;1.92;0.98;;;;;;;22.77;34.77;98644.81;5060846;28;20661;-66
2022/05/22 11:23:36;;;;;;;1.40;0.75;;;;;;;23.50;34.67;98637.72;5061590;28;20044;-67
2022/05/22 11:26:30;;;;;;;3.38;0.80;;;;;;;23.71;33.55;98636.06;5053384;28;20145;-69
2022/05/22 11:29:39;;;;;;;1.45;0.70;;;;;;;23.78;34.12;98630.75;5040311;28;20049;-63
2022/05/22 11:32:50;;;;;;;4.20;0.70;;;;;;;24.97;32.44;98637.94;5056686;28;20429;-68
2022/05/22 11:36:00;;;;;;;5.85;0.82;;;;;;;26.07;31.01;98623.50;5053687;28;20037;-65
2022/05/22 11:38:49;;;;;;;2.13;0.90;;;;;;;25.13;31.33;98627.88;5054202;28;20064;-65
2022/05/22 11:42:18;;;;;;;1.48;0.80;;;;;;;23.99;33.52;98613.00;5054261;28;20075;-65
2022/05/22 11:45:34;;;;;;;1.80;0.88;;;;;;;25.63;32.01;98609.75;5056018;28;20041;-66
2022/05/22 11:48:30;;;;;;;1.70;0.80;;;;;;;24.78;32.08;98610.03;5042572;28;20037;-66
2022/05/22 11:51:54;;;;;;;3.30;1.00;;;;;;;24.81;30.97;98617.66;5056716;28;20043;-68
2022/05/22 11:54:51;;;;;;;1.52;0.77;;;;;;;24.88;31.12;98609.66;5061204;28;20052;-69
2022/05/22 11:57:47;;;;;;;2.15;0.65;;;;;;;25.53;31.12;98607.47;5073359;28;20097;-64
2022/05/22 12:00:40;;;;;;;1.63;0.57;;;;;;;25.25;31.10;98593.25;5063013;28;20052;-65
2022/05/22 12:03:46;;;;;;;1.73;0.70;;;;;;;25.23;31.49;98589.97;5054152;28;20037;-65
2022/05/22 12:06:44;;;;;;;1.13;0.57;;;;;;;26.61;29.13;98590.28;5053934;28;20037;-64
2022/05/22 12:10:26;;;;;;;2.33;0.65;;;;;;;26.52;29.22;98579.78;5056976;28;20037;-69
2022/05/22 12:13:30;;;;;;;4.75;0.75;;;;;;;25.73;29.56;98582.50;5031267;28;20133;-71
2022/05/22 12:16:22;;;;;;;2.95;0.82;;;;;;;25.78;30.40;98580.88;5031447;28;20370;-68
2022/05/22 12:19:13;;;;;;;0.60;0.45;;;;;;;26.91;28.92;98576.28;5072222;28;20441;-69
2022/05/22 12:22:20;;;;;;;4.07;0.88;;;;;;;26.92;28.95;98564.47;5072524;28;20036;-68
2022/05/22 12:25:17;;;;;;;1.23;0.50;;;;;;;24.61;31.25;98561.41;5073448;28;20463;-68
2022/05/22 12:28:13;;;;;;;3.20;0.90;;;;;;;23.23;33.78;98556.50;5073402;28;20040;-68
2022/05/22 12:31:00;;;;;;;1.35;0.70;;;;;;;23.41;33.61;98550.72;5073612;28;20048;-70
2022/05/22 12:33:45;;;;;;;2.15;0.88;;;;;;;25.31;31.89;98560.25;5073185;28;20036;-69
2022/05/22 12:36:30;;;;;;;1.63;1.00;;;;;;;25.00;31.92;98547.47;5058182;28;20082;-69
2022/05/22 12:39:17;;;;;;;2.00;0.90;;;;;;;25.76;30.24;98549.91;5057918;28;20048;-68
2022/05/22 12:42:13;;;;;;;1.83;0.80;;;;;;;25.77;30.02;98560.44;5071808;28;20084;-69
2022/05/22 12:44:58;;;;;;;2.58;1.08;;;;;;;25.26;30.96;98545.84;5073281;28;20124;-66
2022/05/22 12:47:46;;;;;;;2.30;0.90;;;;;;;25.29;31.60;98545.41;5071857;28;20387;-67
2022/05/22 12:50:36;;;;;;;2.63;0.88;;;;;;;25.32;31.72;98545.00;5072696;28;20055;-69
2022/05/22 12:53:32;;;;;;;8.85;1.30;;;;;;;26.19;30.59;98540.50;5071937;28;20364;-67
2022/05/22 12:56:35;;;;;;;4.25;0.95;;;;;;;26.18;30.25;98541.50;5057833;28;20529;-68
2022/05/22 12:59:28;;;;;;;1.75;1.00;;;;;;;25.93;30.08;98537.69;5072949;28;20044;-68
2022/05/22 13:02:32;;;;;;;3.97;0.82;;;;;;;24.90;31.17;98543.34;5071858;28;20136;-68
2022/05/22 13:05:29;;;;;;;2.35;0.85;;;;;;;25.30;30.45;98542.53;5057766;28;20045;-67
2022/05/22 13:08:44;;;;;;;3.90;1.00;;;;;;;25.33;31.12;98519.88;5071661;28;20066;-66
2022/05/22 13:11:45;;;;;;;1.80;0.68;;;;;;;26.24;30.82;98519.22;5072734;28;20048;-69
2022/05/22 13:15:03;;;;;;;3.30;1.25;;;;;;;26.25;30.63;98522.69;5071733;28;20044;-66
2022/05/22 13:18:03;;;;;;;3.30;0.95;;;;;;;25.63;30.06;98511.38;5054610;28;20056;-68
2022/05/22 13:20:52;;;;;;;4.40;0.93;;;;;;;26.03;30.51;98520.34;5071807;28;20041;-69
2022/05/22 13:23:39;;;;;;;4.68;0.73;;;;;;;26.56;29.53;98516.56;5071434;28;20384;-68
2022/05/22 13:26:27;;;;;;;1.50;0.60;;;;;;;25.53;30.34;98516.31;5057539;28;20036;-67
2022/05/22 13:29:19;;;;;;;2.40;0.80;;;;;;;25.79;30.10;98506.56;5071256;28;20036;-67
2022/05/22 13:32:15;;;;;;;1.75;0.68;;;;;;;26.08;29.66;98513.28;5072171;28;20475;-66
2022/05/22 13:35:15;;;;;;;3.25;0.90;;;;;;;26.30;29.49;98507.59;5071364;28;20044;-67
2022/05/22 13:38:00;;;;;;;2.13;1.00;;;;;;;25.92;29.85;98503.03;5071948;28;20063;-67
2022/05/22 13:41:22;;;;;;;1.48;0.85;;;;;;;26.17;29.54;98494.25;5070805;28;20037;-68
2022/05/22 13:44:41;;;;;;;3.53;0.90;;;;;;;26.12;29.53;98489.53;5071957;28;20468;-67
2022/05/22 13:48:00;;;;;;;2.38;0.77;;;;;;;25.71;29.81;98488.84;5072365;28;20098;-66
2022/05/22 13:54:48;;;;;;;1.83;0.85;;;;;;;26.05;29.17;98480.66;5072001;28;20041;-67
2022/05/22 13:57:36;;;;;;;1.98;0.70;;;;;;;26.39;29.50;98475.97;5071069;28;20055;-68
2022/05/22 14:00:24;;;;;;;1.25;0.60;;;;;;;25.96;29.53;98474.75;5072307;28;20052;-67